Time;durP1;ratioP1;P1;durP2;ratioP2;P2;SDS_P1;SDS_P2;PMS_P1;PMS_P2;Temp;Humidity;BMP_temperature;BMP_pressure;BME280_temperature;BME280_humidity;BME280_pressure;Samples;Min_cycle;Max_cycle;Signal;HPM_P1;HPM_P2
2021/08/08 00:00:45;;;;;;;8.43;2.30;;;15.90;99.10;;;;;;5044404;28;20443;-83
2021/08/08 00:03:11;;;;;;;6.40;2.60;;;15.90;99.10;;;;;;5043329;28;20200;-83
2021/08/08 00:05:37;;;;;;;8.80;3.00;;;15.90;99.10;;;;;;5041860;28;20587;-83
2021/08/08 00:08:03;;;;;;;15.90;6.67;;;15.90;99.10;;;;;;5042123;28;20416;-83
2021/08/08 00:10:28;;;;;;;7.57;3.00;;;15.90;99.10;;;;;;5042345;28;20197;-83
2021/08/08 00:12:54;;;;;;;8.57;4.83;;;15.90;99.10;;;;;;5041734;28;20243;-82
2021/08/08 00:15:20;;;;;;;3.80;2.07;;;15.80;99.10;;;;;;5041592;28;20792;-83
2021/08/08 00:17:46;;;;;;;9.87;2.40;;;15.80;99.10;;;;;;5041894;28;20165;-83
2021/08/08 00:20:12;;;;;;;7.77;2.60;;;15.80;99.10;;;;;;5041838;28;20609;-83
2021/08/08 00:22:39;;;;;;;3.90;1.90;;;15.80;99.10;;;;;;5041689;28;20415;-83
2021/08/08 00:25:08;;;;;;;9.00;3.60;;;15.80;99.10;;;;;;5039862;28;20173;-82
2021/08/08 00:27:35;;;;;;;8.02;3.00;;;15.70;99.10;;;;;;5041761;28;20180;-83
2021/08/08 00:30:01;;;;;;;8.80;4.28;;;15.70;99.10;;;;;;5041207;28;20193;-83
2021/08/08 00:32:27;;;;;;;9.77;3.20;;;15.80;99.10;;;;;;5040781;28;20206;-83
2021/08/08 00:34:53;;;;;;;4.30;2.67;;;15.80;99.10;;;;;;5041016;28;20272;-82
2021/08/08 00:37:18;;;;;;;7.50;2.90;;;15.80;99.10;;;;;;5041262;28;20185;-83
2021/08/08 00:39:44;;;;;;;7.70;3.33;;;15.80;99.10;;;;;;5041136;28;20177;-82
2021/08/08 00:42:10;;;;;;;8.07;3.00;;;15.80;99.10;;;;;;5042839;28;20173;-82
2021/08/08 00:44:36;;;;;;;4.00;2.60;;;15.80;99.10;;;;;;5041582;28;20220;-82
2021/08/08 00:47:01;;;;;;;8.23;5.50;;;15.80;99.10;;;;;;5041664;28;20177;-83
2021/08/08 00:49:27;;;;;;;12.37;5.77;;;15.90;99.10;;;;;;5042126;28;20487;-83
2021/08/08 00:51:53;;;;;;;13.57;6.47;;;15.90;99.10;;;;;;5042601;28;20431;-83
2021/08/08 00:54:19;;;;;;;14.23;5.60;;;15.90;99.10;;;;;;5041853;28;20193;-82
2021/08/08 00:56:44;;;;;;;11.60;4.13;;;16.00;99.10;;;;;;5042741;28;20788;-83
2021/08/08 00:59:10;;;;;;;8.70;3.00;;;16.00;99.10;;;;;;5040993;28;20459;-83
2021/08/08 01:01:41;;;;;;;8.60;3.63;;;16.00;99.10;;;;;;5041386;28;20201;-83
2021/08/08 01:04:14;;;;;;;5.80;2.00;;;16.00;99.10;;;;;;5041207;28;20204;-83
2021/08/08 01:06:59;;;;;;;5.88;2.20;;;16.00;99.10;;;;;;5040774;28;20173;-83
2021/08/08 01:09:26;;;;;;;7.00;2.15;;;16.10;99.10;;;;;;5040461;28;20173;-83
2021/08/08 01:11:53;;;;;;;6.43;2.20;;;16.10;99.10;;;;;;5040039;28;20264;-83
2021/08/08 01:14:20;;;;;;;10.07;3.97;;;16.10;99.10;;;;;;5040019;28;20185;-83
2021/08/08 01:16:47;;;;;;;3.70;2.90;;;16.20;99.10;;;;;;5039726;28;20173;-83
2021/08/08 01:19:17;;;;;;;12.35;2.38;;;16.20;99.10;;;;;;5040641;28;20218;-83
2021/08/08 01:21:45;;;;;;;4.00;2.20;;;16.20;99.10;;;;;;5041516;28;20174;-84
2021/08/08 01:24:11;;;;;;;5.05;2.38;;;16.20;99.10;;;;;;5039674;28;20242;-83
2021/08/08 01:26:40;;;;;;;4.90;2.35;;;16.10;99.10;;;;;;5040423;28;20184;-83
2021/08/08 01:29:07;;;;;;;2.42;1.85;;;16.20;99.10;;;;;;5040389;28;20169;-83
2021/08/08 01:31:33;;;;;;;3.60;1.95;;;16.20;99.10;;;;;;5041062;28;20231;-83
2021/08/08 01:33:59;;;;;;;2.53;1.90;;;16.10;99.10;;;;;;5040523;28;20672;-83
2021/08/08 01:36:25;;;;;;;2.55;2.05;;;16.10;99.10;;;;;;5038674;28;20265;-83
2021/08/08 01:39:14;;;;;;;3.60;1.50;;;16.00;99.10;;;;;;5040340;28;20193;-83
2021/08/08 01:41:47;;;;;;;4.90;1.40;;;16.00;99.10;;;;;;5057317;28;20462;-83
2021/08/08 01:44:13;;;;;;;8.73;1.63;;;16.00;99.10;;;;;;5040740;28;20196;-82
2021/08/08 01:46:40;;;;;;;5.32;2.40;;;16.00;99.10;;;;;;5041012;28;20180;-82
2021/08/08 01:49:07;;;;;;;9.48;1.67;;;16.00;99.10;;;;;;5040428;28;20268;-83
2021/08/08 01:51:33;;;;;;;2.00;1.40;;;16.10;99.10;;;;;;5040048;28;20181;-83
2021/08/08 01:53:59;;;;;;;3.47;1.50;;;16.10;99.10;;;;;;5039158;28;20189;-83
2021/08/08 01:56:25;;;;;;;2.10;1.50;;;16.10;99.10;;;;;;5039167;28;21001;-83
2021/08/08 01:58:51;;;;;;;2.33;1.63;;;16.10;99.10;;;;;;5039435;28;20173;-83
2021/08/08 02:01:18;;;;;;;5.80;2.10;;;16.00;99.10;;;;;;5041117;28;20189;-82
2021/08/08 02:03:44;;;;;;;5.82;2.03;;;16.00;99.10;;;;;;5040135;28;20435;-82
2021/08/08 02:06:10;;;;;;;3.30;1.50;;;16.10;99.10;;;;;;5040390;28;20169;-82
2021/08/08 02:08:36;;;;;;;4.28;2.20;;;16.00;99.10;;;;;;5040301;28;20697;-83
2021/08/08 02:11:03;;;;;;;5.00;1.50;;;16.00;99.10;;;;;;5040235;28;20746;-82
2021/08/08 02:13:29;;;;;;;1.92;1.40;;;16.00;99.10;;;;;;5039306;28;20185;-82
2021/08/08 02:15:55;;;;;;;1.75;1.25;;;16.00;99.10;;;;;;5040170;28;20169;-82
2021/08/08 02:18:21;;;;;;;2.67;1.30;;;16.00;99.10;;;;;;5040273;28;20172;-82
2021/08/08 02:20:48;;;;;;;6.32;2.25;;;15.90;99.10;;;;;;5040332;28;20181;-82
2021/08/08 02:23:14;;;;;;;4.07;1.58;;;15.90;99.10;;;;;;5040154;28;20539;-82
2021/08/08 02:25:40;;;;;;;2.05;1.60;;;15.90;99.10;;;;;;5038947;28;20263;-83
2021/08/08 02:28:09;;;;;;;2.65;2.00;;;15.90;99.10;;;;;;5039263;28;20574;-83
2021/08/08 02:30:36;;;;;;;2.08;1.35;;;15.80;99.10;;;;;;5039209;28;20200;-83
2021/08/08 02:33:02;;;;;;;2.20;1.30;;;15.80;99.10;;;;;;5040317;28;20193;-83
2021/08/08 02:35:28;;;;;;;6.28;1.52;;;15.80;99.10;;;;;;5039705;28;20793;-83
2021/08/08 02:37:54;;;;;;;1.77;1.37;;;15.80;99.10;;;;;;5039727;28;20200;-82
2021/08/08 02:40:20;;;;;;;3.88;1.35;;;15.80;99.10;;;;;;5039251;28;20423;-83
2021/08/08 02:42:46;;;;;;;2.70;1.37;;;15.90;99.10;;;;;;5039391;28;20180;-83
2021/08/08 02:45:12;;;;;;;1.90;1.50;;;15.90;99.10;;;;;;5039218;28;20277;-83
2021/08/08 02:47:38;;;;;;;8.20;1.63;;;15.90;99.10;;;;;;5039435;28;20499;-83
2021/08/08 02:50:05;;;;;;;5.17;1.60;;;15.90;99.10;;;;;;5042631;28;20509;-83
2021/08/08 02:52:31;;;;;;;4.22;2.50;;;15.90;99.10;;;;;;5042888;28;20411;-83
2021/08/08 02:54:57;;;;;;;5.93;1.80;;;16.00;99.10;;;;;;5042381;28;20200;-82
2021/08/08 02:57:23;;;;;;;6.18;1.65;;;16.00;99.10;;;;;;5042998;28;20532;-83
2021/08/08 02:59:49;;;;;;;3.40;1.80;;;16.00;99.10;;;;;;5042898;28;20181;-83
2021/08/08 03:02:15;;;;;;;5.40;1.57;;;16.00;99.10;;;;;;5042582;28;20411;-83
2021/08/08 03:04:41;;;;;;;9.18;1.38;;;16.00;99.10;;;;;;5043518;28;20196;-83
2021/08/08 03:07:06;;;;;;;3.43;1.20;;;16.00;99.10;;;;;;5043559;28;20200;-83
2021/08/08 03:09:32;;;;;;;6.70;1.70;;;16.00;99.10;;;;;;5043848;28;20197;-83
2021/08/08 03:11:58;;;;;;;2.60;1.70;;;16.00;99.10;;;;;;5043911;28;20173;-83
2021/08/08 03:14:24;;;;;;;1.85;1.27;;;15.90;99.10;;;;;;5043404;28;20186;-83
2021/08/08 03:16:50;;;;;;;1.75;1.30;;;15.80;99.10;;;;;;5043112;28;20542;-82
2021/08/08 03:19:16;;;;;;;3.67;1.88;;;15.90;99.10;;;;;;5043013;28;20197;-83
2021/08/08 03:21:43;;;;;;;2.35;1.83;;;15.80;99.10;;;;;;5042697;28;20658;-83
2021/08/08 03:24:09;;;;;;;5.45;2.08;;;15.80;99.10;;;;;;5042775;28;20564;-83
2021/08/08 03:26:36;;;;;;;4.27;1.93;;;15.80;99.10;;;;;;5042356;28;20178;-83
2021/08/08 03:29:01;;;;;;;2.58;1.50;;;15.70;99.10;;;;;;5042095;28;20176;-83
2021/08/08 03:31:27;;;;;;;5.13;1.53;;;15.70;99.10;;;;;;5041475;28;20283;-83
2021/08/08 03:33:54;;;;;;;3.30;1.97;;;15.70;99.10;;;;;;5041776;28;20434;-83
2021/08/08 03:36:21;;;;;;;3.42;1.60;;;15.60;99.10;;;;;;5042157;28;20400;-83
2021/08/08 03:38:48;;;;;;;1.40;1.30;;;15.60;99.10;;;;;;5043015;28;20245;-82
2021/08/08 03:41:14;;;;;;;25.23;2.15;;;15.60;99.10;;;;;;5043766;28;20173;-83
2021/08/08 03:43:40;;;;;;;9.38;1.80;;;15.60;99.10;;;;;;5042445;28;20201;-83
2021/08/08 03:46:05;;;;;;;12.30;1.70;;;15.60;99.10;;;;;;5059867;28;20506;-83
2021/08/08 03:48:31;;;;;;;3.40;1.67;;;15.60;99.10;;;;;;5043523;28;20179;-83
2021/08/08 03:50:57;;;;;;;6.27;2.27;;;15.60;99.10;;;;;;5043165;28;20292;-82
2021/08/08 03:53:22;;;;;;;4.87;1.97;;;15.60;99.10;;;;;;5042081;28;20189;-82
2021/08/08 03:55:48;;;;;;;3.40;1.67;;;15.60;99.10;;;;;;5041013;28;20660;-83
2021/08/08 03:58:14;;;;;;;3.27;1.70;;;15.60;99.10;;;;;;5044244;28;20795;-83
2021/08/08 04:00:40;;;;;;;5.90;1.80;;;15.60;99.10;;;;;;5055948;28;20418;-83
2021/08/08 04:03:06;;;;;;;6.20;2.03;;;15.60;99.10;;;;;;5055998;28;20201;-82
2021/08/08 04:05:32;;;;;;;3.88;1.70;;;15.60;99.10;;;;;;5048387;28;20180;-83
2021/08/08 04:07:59;;;;;;;5.00;1.40;;;15.70;99.10;;;;;;5046757;28;20173;-83
2021/08/08 04:10:25;;;;;;;1.63;1.45;;;15.70;99.10;;;;;;5043440;28;20213;-83
2021/08/08 04:12:51;;;;;;;2.43;1.30;;;15.70;99.10;;;;;;5043045;28;20557;-83
2021/08/08 04:15:16;;;;;;;1.90;1.30;;;15.70;99.10;;;;;;5042149;28;20173;-84
2021/08/08 04:17:42;;;;;;;1.97;1.50;;;15.70;99.10;;;;;;5042501;28;20172;-83
2021/08/08 04:20:08;;;;;;;3.20;1.20;;;15.60;99.10;;;;;;5041770;28;20184;-83
2021/08/08 04:22:34;;;;;;;6.80;1.75;;;15.60;99.10;;;;;;5040393;28;20177;-84
2021/08/08 04:25:00;;;;;;;3.80;2.30;;;15.50;99.10;;;;;;5038689;28;20195;-84
2021/08/08 04:27:26;;;;;;;3.63;1.83;;;15.50;99.10;;;;;;5038991;28;20204;-85
2021/08/08 04:29:51;;;;;;;6.03;2.00;;;15.40;99.10;;;;;;5037983;28;20236;-85
2021/08/08 04:32:18;;;;;;;2.57;1.37;;;15.40;99.10;;;;;;5038844;28;20176;-83
2021/08/08 04:34:44;;;;;;;14.13;2.22;;;15.40;99.10;;;;;;5039081;28;20555;-82
2021/08/08 04:37:09;;;;;;;2.27;1.67;;;15.40;99.10;;;;;;5038378;28;20169;-83
2021/08/08 04:39:35;;;;;;;5.43;1.52;;;15.40;99.10;;;;;;5040968;28;20424;-83
2021/08/08 04:42:02;;;;;;;5.33;2.40;;;15.40;99.10;;;;;;5042265;28;20268;-83
2021/08/08 04:44:28;;;;;;;8.50;2.60;;;15.40;99.10;;;;;;5041362;28;20867;-83
2021/08/08 04:46:54;;;;;;;2.83;1.93;;;15.40;99.10;;;;;;5041591;28;20212;-84
2021/08/08 04:49:19;;;;;;;7.90;2.30;;;15.30;99.10;;;;;;5041187;28;20446;-82
2021/08/08 04:51:45;;;;;;;3.23;2.00;;;15.30;99.10;;;;;;5041370;28;20911;-82
2021/08/08 04:54:11;;;;;;;5.23;1.97;;;15.40;99.10;;;;;;5041476;28;20553;-83
2021/08/08 04:56:37;;;;;;;4.40;2.63;;;15.30;99.10;;;;;;5040630;28;20439;-82
2021/08/08 04:59:03;;;;;;;7.17;2.10;;;15.30;99.10;;;;;;5041530;28;20412;-82
2021/08/08 05:01:29;;;;;;;8.20;2.27;;;15.30;99.10;;;;;;5041361;28;20425;-82
2021/08/08 05:03:56;;;;;;;5.28;2.10;;;15.30;99.10;;;;;;5040625;28;20467;-82
2021/08/08 05:06:22;;;;;;;7.03;3.05;;;15.40;99.10;;;;;;5039644;28;20181;-82
2021/08/08 05:08:48;;;;;;;3.42;2.05;;;15.40;99.10;;;;;;5040161;28;20173;-83
2021/08/08 05:11:20;;;;;;;4.90;2.20;;;15.40;99.10;;;;;;5040520;28;20211;-82
2021/08/08 05:13:46;;;;;;;4.55;2.20;;;15.40;99.10;;;;;;5039292;28;20564;-83
2021/08/08 05:16:13;;;;;;;3.67;1.63;;;15.40;99.10;;;;;;5039154;28;20169;-83
2021/08/08 05:18:38;;;;;;;6.95;1.98;;;15.50;99.10;;;;;;5038966;28;20181;-83
2021/08/08 05:21:04;;;;;;;4.83;1.80;;;15.60;99.10;;;;;;5039442;28;20195;-83
2021/08/08 05:23:30;;;;;;;6.27;1.97;;;15.60;99.10;;;;;;5039408;28;20241;-83
2021/08/08 05:25:59;;;;;;;3.87;1.73;;;15.70;99.10;;;;;;5040342;28;20201;-83
2021/08/08 05:28:26;;;;;;;2.47;2.10;;;15.70;99.10;;;;;;5041053;28;20416;-83
2021/08/08 05:30:52;;;;;;;3.35;2.38;;;15.70;99.10;;;;;;5039752;28;20197;-82
2021/08/08 05:33:18;;;;;;;4.60;2.00;;;15.80;99.10;;;;;;5038991;28;20533;-83
2021/08/08 05:35:43;;;;;;;6.37;2.10;;;15.90;99.10;;;;;;5038469;28;20176;-82
2021/08/08 05:38:09;;;;;;;2.53;1.77;;;15.90;99.10;;;;;;5038180;28;20427;-83
2021/08/08 05:40:35;;;;;;;4.10;2.17;;;16.00;99.10;;;;;;5038678;28;20428;-82
2021/08/08 05:43:01;;;;;;;8.97;2.70;;;16.10;99.10;;;;;;5038606;28;20442;-83
2021/08/08 05:45:26;;;;;;;5.10;1.70;;;16.20;99.10;;;;;;5038542;28;20230;-82
2021/08/08 05:47:53;;;;;;;13.13;1.87;;;16.20;99.10;;;;;;5038434;28;20181;-83
2021/08/08 05:50:19;;;;;;;2.88;2.22;;;16.20;99.10;;;;;;5038411;28;20854;-83
2021/08/08 05:52:48;;;;;;;4.13;1.60;;;16.30;99.10;;;;;;5037852;28;20256;-82
2021/08/08 05:55:15;;;;;;;6.72;1.67;;;16.40;99.10;;;;;;5037277;28;20428;-82
2021/08/08 05:57:41;;;;;;;8.77;1.83;;;16.40;99.10;;;;;;5124106;22;20335;-78
2021/08/08 06:00:07;;;;;;;10.53;1.50;;;16.50;99.10;;;;;;5056889;28;20196;-78
2021/08/08 06:02:34;;;;;;;2.05;1.20;;;16.60;99.10;;;;;;5056212;28;20856;-78
2021/08/08 06:05:00;;;;;;;3.17;1.63;;;16.70;98.80;;;;;;5037001;28;20173;-78
2021/08/08 06:07:25;;;;;;;2.90;1.23;;;16.70;98.20;;;;;;5054353;28;20176;-78
2021/08/08 06:09:51;;;;;;;2.53;1.27;;;16.80;97.50;;;;;;5036297;28;20447;-77
2021/08/08 06:12:17;;;;;;;1.40;1.30;;;16.90;97.10;;;;;;5035914;28;20252;-78
2021/08/08 06:14:43;;;;;;;2.40;1.23;;;17.00;96.90;;;;;;5036063;28;20196;-78
2021/08/08 06:17:08;;;;;;;6.20;1.53;;;17.20;96.10;;;;;;5035547;28;20404;-77
2021/08/08 06:19:34;;;;;;;6.77;1.43;;;17.20;96.00;;;;;;5036053;28;20633;-77
2021/08/08 06:22:00;;;;;;;7.10;1.30;;;17.40;95.80;;;;;;5035462;28;20191;-77
2021/08/08 06:24:26;;;;;;;1.70;1.00;;;17.50;94.90;;;;;;5035355;28;20431;-77
2021/08/08 06:26:51;;;;;;;2.30;1.33;;;17.60;94.80;;;;;;5035612;28;20415;-77
2021/08/08 06:29:17;;;;;;;3.60;1.40;;;17.60;93.90;;;;;;5035719;28;20174;-77
2021/08/08 06:31:43;;;;;;;2.87;1.20;;;17.70;94.20;;;;;;5035539;28;20187;-77
2021/08/08 06:34:09;;;;;;;5.75;1.30;;;17.90;93.90;;;;;;5035513;28;20420;-77
2021/08/08 06:36:35;;;;;;;0.90;0.73;;;18.00;93.10;;;;;;5035613;28;20251;-78
2021/08/08 06:39:05;;;;;;;2.33;1.20;;;18.10;91.40;;;;;;5035603;28;20637;-77
2021/08/08 06:41:32;;;;;;;2.30;1.10;;;18.20;92.10;;;;;;5035699;28;20677;-77
2021/08/08 06:43:57;;;;;;;1.67;1.30;;;18.30;92.00;;;;;;5035344;28;20221;-77
2021/08/08 06:46:23;;;;;;;2.83;1.30;;;18.40;91.00;;;;;;5035205;28;20211;-77
2021/08/08 06:48:49;;;;;;;6.37;1.70;;;18.50;90.60;;;;;;5035374;28;20919;-77
2021/08/08 06:51:15;;;;;;;3.10;1.40;;;18.60;91.40;;;;;;5035396;28;20451;-78
2021/08/08 06:53:41;;;;;;;2.97;1.47;;;18.60;90.80;;;;;;5035374;28;20196;-77
2021/08/08 06:56:06;;;;;;;3.03;1.20;;;18.70;90.80;;;;;;5034888;28;20420;-77
2021/08/08 06:58:32;;;;;;;1.30;1.03;;;18.70;90.10;;;;;;5034711;28;20418;-77
2021/08/08 07:00:58;;;;;;;2.33;1.27;;;18.90;89.40;;;;;;5034350;28;20506;-76
2021/08/08 07:03:24;;;;;;;1.20;1.00;;;18.90;89.10;;;;;;5034461;28;20239;-77
2021/08/08 07:05:49;;;;;;;1.67;1.40;;;19.00;88.30;;;;;;5034178;28;20596;-76
2021/08/08 07:08:15;;;;;;;6.33;1.40;;;19.10;89.80;;;;;;5034375;28;20180;-77
2021/08/08 07:10:41;;;;;;;3.63;1.20;;;19.20;90.10;;;;;;5034474;28;20197;-77
2021/08/08 07:13:07;;;;;;;4.40;1.47;;;19.30;88.00;;;;;;5034221;28;20439;-77
2021/08/08 07:15:32;;;;;;;2.67;1.03;;;19.40;87.40;;;;;;5034163;28;20173;-77
2021/08/08 07:17:58;;;;;;;3.00;1.13;;;19.40;87.70;;;;;;5034261;28;20419;-76
2021/08/08 07:20:24;;;;;;;2.90;1.20;;;19.50;88.30;;;;;;5034209;28;20307;-77
2021/08/08 07:22:50;;;;;;;5.60;1.25;;;19.60;83.90;;;;;;5034283;28;20268;-77
2021/08/08 07:25:16;;;;;;;1.57;1.33;;;19.60;84.90;;;;;;5034305;28;20267;-77
2021/08/08 07:27:42;;;;;;;5.97;1.50;;;19.60;86.20;;;;;;5034368;28;20177;-76
2021/08/08 07:30:08;;;;;;;5.23;2.37;;;19.70;85.30;;;;;;5034116;28;20194;-77
2021/08/08 07:32:34;;;;;;;1.38;1.05;;;19.80;84.20;;;;;;5033976;28;20404;-77
2021/08/08 07:35:02;;;;;;;2.30;1.30;;;19.80;83.70;;;;;;5035085;28;20239;-77
2021/08/08 07:37:28;;;;;;;5.55;1.90;;;19.90;84.90;;;;;;5037672;28;20419;-77
2021/08/08 07:39:53;;;;;;;2.40;1.45;;;19.90;83.50;;;;;;5037540;28;20173;-76
2021/08/08 07:42:19;;;;;;;11.90;1.40;;;20.00;85.30;;;;;;5037525;28;20173;-77
2021/08/08 07:44:45;;;;;;;4.13;1.50;;;20.10;84.50;;;;;;5037453;28;20189;-76
2021/08/08 07:47:15;;;;;;;5.27;1.50;;;20.20;83.90;;;;;;5037353;28;20414;-77
2021/08/08 07:49:42;;;;;;;1.77;1.15;;;20.40;83.00;;;;;;5037388;28;20656;-76
2021/08/08 07:52:07;;;;;;;3.17;1.40;;;20.60;84.10;;;;;;5037424;28;20208;-77
2021/08/08 07:54:33;;;;;;;1.87;1.20;;;20.70;80.20;;;;;;5056173;28;20189;-77
2021/08/08 07:56:59;;;;;;;5.13;1.60;;;20.80;82.70;;;;;;5038500;28;20969;-77
2021/08/08 07:59:25;;;;;;;3.40;1.30;;;20.90;81.00;;;;;;5038630;28;20408;-77
2021/08/08 08:01:51;;;;;;;3.77;1.40;;;21.00;78.90;;;;;;5038567;28;20408;-77
2021/08/08 08:04:19;;;;;;;5.90;1.40;;;21.10;77.70;;;;;;5038836;28;20947;-77
2021/08/08 08:06:46;;;;;;;2.25;1.23;;;21.10;78.70;;;;;;5039220;28;20412;-77
2021/08/08 08:09:12;;;;;;;7.88;2.30;;;21.20;79.20;;;;;;5038123;28;20655;-77
2021/08/08 08:11:42;;;;;;;3.63;1.30;;;21.30;78.10;;;;;;5038093;28;20197;-77
2021/08/08 08:14:08;;;;;;;4.97;1.38;;;21.30;75.90;;;;;;5037644;28;20280;-76
2021/08/08 08:16:34;;;;;;;5.47;1.85;;;21.40;74.50;;;;;;5037951;28;20649;-78
2021/08/08 08:19:00;;;;;;;2.55;1.50;;;21.60;76.20;;;;;;5038677;28;20179;-77
2021/08/08 08:21:26;;;;;;;8.00;4.17;;;21.80;72.70;;;;;;5038653;28;20256;-76
2021/08/08 08:23:51;;;;;;;3.83;1.80;;;21.90;76.00;;;;;;5054456;28;20193;-77
2021/08/08 08:26:17;;;;;;;4.37;1.40;;;22.10;72.70;;;;;;5037555;28;20824;-77
2021/08/08 08:28:43;;;;;;;3.23;1.20;;;22.10;71.00;;;;;;5037244;28;20173;-76
2021/08/08 08:31:09;;;;;;;3.57;1.40;;;21.80;73.50;;;;;;5037075;28;20243;-77
2021/08/08 08:33:36;;;;;;;3.92;1.70;;;21.70;74.50;;;;;;5036847;28;20567;-77
2021/08/08 08:36:01;;;;;;;4.22;1.40;;;21.50;72.80;;;;;;5037056;28;20169;-77
2021/08/08 08:38:27;;;;;;;1.70;1.00;;;21.60;73.30;;;;;;5037001;28;20751;-77
2021/08/08 08:40:55;;;;;;;3.80;1.30;;;21.40;74.90;;;;;;5037132;28;20180;-77
2021/08/08 08:43:24;;;;;;;3.20;1.85;;;21.30;73.10;;;;;;5038503;28;20199;-77
2021/08/08 08:45:50;;;;;;;6.75;1.63;;;21.40;73.70;;;;;;5036647;28;20698;-77
2021/08/08 08:48:19;;;;;;;2.40;1.17;;;21.40;71.30;;;;;;5026772;28;20340;-76
2021/08/08 08:50:54;;;;;;;2.53;1.65;;;21.40;72.00;;;;;;5016690;28;20555;-77
2021/08/08 08:53:21;;;;;;;2.15;1.20;;;21.50;72.00;;;;;;5016865;28;20686;-77
2021/08/08 08:55:47;;;;;;;5.60;1.60;;;21.70;70.50;;;;;;5016739;28;20166;-77
2021/08/08 08:58:15;;;;;;;9.43;1.97;;;21.80;68.90;;;;;;5016407;28;20192;-77
2021/08/08 09:00:41;;;;;;;2.20;1.42;;;22.00;71.90;;;;;;5016541;28;20412;-77
2021/08/08 09:03:07;;;;;;;3.67;1.63;;;22.00;70.10;;;;;;5016304;28;20203;-77
2021/08/08 09:05:33;;;;;;;4.20;1.90;;;21.90;69.20;;;;;;5016426;28;20611;-77
2021/08/08 09:07:59;;;;;;;5.60;1.43;;;21.80;70.30;;;;;;5016272;28;20430;-77
2021/08/08 09:10:25;;;;;;;5.13;1.50;;;21.70;70.90;;;;;;5016587;28;20498;-77
2021/08/08 09:12:59;;;;;;;1.83;1.30;;;21.70;72.60;;;;;;5016550;28;20502;-77
2021/08/08 09:15:38;;;;;;;4.50;1.20;;;21.70;73.00;;;;;;5016452;28;20424;-77
2021/08/08 09:18:17;;;;;;;5.85;1.30;;;21.60;69.90;;;;;;5016286;28;20623;-77
2021/08/08 09:20:45;;;;;;;9.25;2.80;;;21.50;71.40;;;;;;5016581;28;20592;-77
2021/08/08 09:23:11;;;;;;;3.00;1.50;;;21.60;72.80;;;;;;5032179;28;20205;-77
2021/08/08 09:25:47;;;;;;;2.08;1.55;;;21.80;74.80;;;;;;5034900;28;20185;-77
2021/08/08 09:28:13;;;;;;;3.47;1.40;;;22.00;73.10;;;;;;5015971;28;20212;-77
2021/08/08 09:30:41;;;;;;;4.77;1.73;;;22.30;70.30;;;;;;5016311;28;20202;-77
2021/08/08 09:33:09;;;;;;;4.15;1.55;;;22.70;72.10;;;;;;5017514;28;20285;-77
2021/08/08 09:35:40;;;;;;;7.93;2.25;;;23.00;70.50;;;;;;5017698;28;20181;-77
2021/08/08 09:38:11;;;;;;;2.25;1.55;;;23.20;68.50;;;;;;5017669;28;20516;-77
2021/08/08 09:40:41;;;;;;;3.30;1.65;;;23.40;63.30;;;;;;5017204;28;20173;-77
2021/08/08 09:43:09;;;;;;;6.07;2.53;;;23.60;65.60;;;;;;5017778;28;20193;-80
2021/08/08 09:45:44;;;;;;;4.40;1.73;;;23.70;66.20;;;;;;5017768;28;20177;-80
2021/08/08 09:48:14;;;;;;;2.55;1.20;;;23.70;66.90;;;;;;5016272;28;20180;-80
2021/08/08 09:50:51;;;;;;;1.50;1.30;;;23.70;62.10;;;;;;5018713;28;20497;-80
2021/08/08 09:53:20;;;;;;;1.95;1.10;;;23.80;63.90;;;;;;5016798;28;20232;-80
2021/08/08 09:55:48;;;;;;;4.10;1.58;;;24.10;62.30;;;;;;5023583;28;20171;-80
2021/08/08 09:58:26;;;;;;;2.95;1.45;;;24.20;62.10;;;;;;5039996;28;20196;-80
2021/08/08 10:01:01;;;;;;;2.17;1.30;;;24.20;63.70;;;;;;5037342;28;20177;-80
2021/08/08 10:03:28;;;;;;;3.10;1.48;;;24.40;59.80;;;;;;5039729;28;20192;-80
2021/08/08 10:05:55;;;;;;;1.70;1.30;;;24.30;58.90;;;;;;5031569;28;20222;-81
2021/08/08 10:08:23;;;;;;;3.72;2.20;;;24.40;60.00;;;;;;5038018;28;20197;-81
2021/08/08 10:10:52;;;;;;;3.90;1.40;;;24.60;59.60;;;;;;5037582;28;20231;-80
2021/08/08 10:13:31;;;;;;;4.15;1.77;;;24.70;61.30;;;;;;5036852;28;20193;-81
2021/08/08 10:15:59;;;;;;;7.55;1.20;;;24.90;58.10;;;;;;5052198;28;20161;-81
2021/08/08 10:18:32;;;;;;;2.15;1.25;;;24.90;55.70;;;;;;5035270;28;20629;-80
2021/08/08 10:20:58;;;;;;;8.13;1.63;;;24.40;58.50;;;;;;5035501;28;20176;-82
2021/08/08 10:23:27;;;;;;;3.20;1.40;;;24.40;58.30;;;;;;5056973;28;20193;-81
2021/08/08 10:25:54;;;;;;;3.15;2.00;;;24.30;58.70;;;;;;5036897;28;20184;-82
2021/08/08 10:28:21;;;;;;;3.05;1.23;;;24.20;56.80;;;;;;5037877;28;20175;-81
2021/08/08 10:30:47;;;;;;;5.78;1.20;;;24.10;58.80;;;;;;5036621;28;20201;-81
2021/08/08 10:33:13;;;;;;;2.92;1.30;;;23.90;60.00;;;;;;5036865;28;20193;-80
2021/08/08 10:35:42;;;;;;;5.13;1.40;;;23.90;59.60;;;;;;5035831;28;20173;-82
2021/08/08 10:38:09;;;;;;;2.75;1.70;;;23.80;59.80;;;;;;5035501;28;20219;-81
2021/08/08 10:40:37;;;;;;;3.40;1.20;;;23.80;60.80;;;;;;5036812;28;20267;-81
2021/08/08 10:43:08;;;;;;;2.78;1.10;;;23.90;61.00;;;;;;5036807;28;20192;-81
2021/08/08 10:45:38;;;;;;;2.38;1.30;;;23.90;59.70;;;;;;5037146;28;20629;-81
2021/08/08 10:48:05;;;;;;;2.20;1.33;;;23.60;60.30;;;;;;5035451;28;20169;-81
2021/08/08 10:50:43;;;;;;;2.30;1.40;;;23.60;61.90;;;;;;5037092;28;20216;-82
2021/08/08 10:53:34;;;;;;;2.30;1.23;;;23.60;60.80;;;;;;5037433;28;20559;-81
2021/08/08 10:56:12;;;;;;;2.38;1.20;;;23.60;60.00;;;;;;5034964;28;20660;-79
2021/08/08 10:58:44;;;;;;;3.40;1.50;;;23.50;61.40;;;;;;5035485;28;20273;-80
2021/08/08 11:01:20;;;;;;;3.78;1.42;;;23.70;62.30;;;;;;5036665;28;20205;-82
2021/08/08 11:03:54;;;;;;;2.40;1.35;;;24.10;60.50;;;;;;5035628;28;20193;-83
2021/08/08 11:06:31;;;;;;;2.58;1.40;;;24.30;57.50;;;;;;5036990;28;20268;-82
2021/08/08 11:08:58;;;;;;;3.80;1.33;;;24.50;57.90;;;;;;5038437;28;20173;-83
2021/08/08 11:11:30;;;;;;;9.27;2.22;;;24.80;58.10;;;;;;5040291;28;20280;-82
2021/08/08 11:14:15;;;;;;;4.57;1.58;;;25.00;57.00;;;;;;5038835;28;20196;-82
2021/08/08 11:16:46;;;;;;;2.95;1.42;;;25.30;58.90;;;;;;5039012;28;20248;-82
2021/08/08 11:19:13;;;;;;;3.95;1.65;;;25.70;52.40;;;;;;5038371;28;20162;-82
2021/08/08 11:21:40;;;;;;;4.72;1.50;;;26.00;55.10;;;;;;5056736;28;20173;-82
2021/08/08 11:24:10;;;;;;;3.92;1.58;;;25.90;51.70;;;;;;5038593;28;20287;-82
2021/08/08 11:26:36;;;;;;;3.17;1.13;;;25.70;52.80;;;;;;5038345;28;20217;-82
2021/08/08 11:29:05;;;;;;;5.40;1.40;;;25.40;55.30;;;;;;5038071;28;20180;-82
2021/08/08 11:31:36;;;;;;;4.47;1.40;;;25.20;55.50;;;;;;5037964;28;20193;-82
2021/08/08 11:34:04;;;;;;;1.80;1.27;;;24.80;55.50;;;;;;5038259;28;20280;-81
2021/08/08 11:36:33;;;;;;;2.13;1.40;;;24.50;55.50;;;;;;5038987;28;20188;-82
2021/08/08 11:39:01;;;;;;;7.97;2.05;;;24.40;56.80;;;;;;5039469;28;20314;-81
2021/08/08 11:41:29;;;;;;;6.00;1.50;;;24.50;57.00;;;;;;5039579;28;20184;-82
2021/08/08 11:44:04;;;;;;;9.45;1.35;;;24.70;55.90;;;;;;5040089;28;20200;-81
2021/08/08 11:46:31;;;;;;;10.85;1.33;;;24.70;54.50;;;;;;5056163;28;20179;-81
2021/08/08 11:48:57;;;;;;;4.20;1.45;;;24.70;56.00;;;;;;5040429;28;20177;-82
2021/08/08 11:51:23;;;;;;;2.13;1.40;;;25.00;56.40;;;;;;5039350;28;20200;-82
2021/08/08 11:53:56;;;;;;;2.60;1.33;;;25.20;55.00;;;;;;5040821;28;20432;-82
2021/08/08 11:56:33;;;;;;;2.72;1.48;;;25.30;53.90;;;;;;5054821;22;20173;-82
2021/08/08 11:58:58;;;;;;;4.20;1.50;;;25.30;53.60;;;;;;5020102;28;20181;-82
2021/08/08 12:01:26;;;;;;;2.30;1.40;;;25.10;55.10;;;;;;5020712;28;20170;-82
2021/08/08 12:04:06;;;;;;;7.63;1.40;;;25.30;57.10;;;;;;5019182;28;20438;-83
2021/08/08 12:06:43;;;;;;;1.55;1.20;;;25.50;52.40;;;;;;5019575;28;20201;-83
2021/08/08 12:09:09;;;;;;;2.53;1.30;;;25.60;52.50;;;;;;5020103;28;20257;-83
2021/08/08 12:11:52;;;;;;;2.80;1.40;;;25.50;53.20;;;;;;5021222;28;20213;-84
2021/08/08 12:14:35;;;;;;;2.63;1.40;;;25.30;52.10;;;;;;5021451;28;20955;-84
2021/08/08 12:17:04;;;;;;;2.78;1.73;;;24.90;53.40;;;;;;5019686;28;20166;-88
2021/08/08 12:19:31;;;;;;;1.70;1.40;;;24.40;56.80;;;;;;5018978;28;20166;-84
2021/08/08 12:22:16;;;;;;;4.28;1.67;;;23.90;58.80;;;;;;5019852;28;20630;-84
2021/08/08 12:24:50;;;;;;;4.72;1.92;;;23.50;60.00;;;;;;5019171;28;20182;-84
2021/08/08 12:27:28;;;;;;;4.63;0.80;;;23.60;57.70;;;;;;5019620;28;20281;-85
2021/08/08 12:29:57;;;;;;;1.27;0.90;;;23.60;52.00;;;;;;5020650;28;20684;-84
2021/08/08 12:32:23;;;;;;;2.33;1.00;;;23.50;53.30;;;;;;5020235;28;20634;-85
2021/08/08 12:34:53;;;;;;;0.95;0.85;;;23.50;53.60;;;;;;5020426;28;20275;-84
2021/08/08 12:37:22;;;;;;;3.88;1.20;;;23.90;53.40;;;;;;5019971;28;20261;-84
2021/08/08 12:39:48;;;;;;;1.75;1.02;;;24.10;51.90;;;;;;5019492;28;20200;-84
2021/08/08 12:42:21;;;;;;;1.93;1.13;;;24.30;51.50;;;;;;5019488;28;20209;-84
2021/08/08 12:44:48;;;;;;;2.88;0.90;;;24.30;54.10;;;;;;5018468;28;20432;-84
2021/08/08 12:47:24;;;;;;;4.10;1.23;;;24.40;51.20;;;;;;5019001;28;20174;-84